Forside
METAR-TAF:

METAR-TAF

Lufthavne :

Schoolcraft County Airport

Manistique, Michigan, USA

Breddekreds: 45-58-29N, længdekreds: 086-10-19W, højde: 209 m

Aktuelle vejr

Denne rapport blev lavet for 13 minutter siden, kl. 03:35 UTC
Vind 8 kt fra vest
Temperatur -14°C
Fugtighed 72%
Tryk 1019 hPa
Sigt: 16.1 km
skyfri

METAR: KISQ 110335Z AUTO 27008KT 10SM CLR M14/M18 A3008 RMK AO2 T11401176

Tid: 22:48 (03:48 UTC)


TAF: fraværende

Vejrobservationer og prognoser fra mere end 4000 lufthavne (METAR og TAF).

De gule og røde prikker repræsenterer de meteorologiske stationer.

Flyt musen over at se navnet på stationen.

Så klik over at se vejr observationer og prognoser.

At skifte det kort: Klik på de grønne knapper med et sort kors for at zoome ind; på den grønne knap med en bindestreg for at zoome ud; eller på de grønne pile for tilstødende kort.


METAR-TAF: